Madison, MN

7:23 AM CST on December 08, 2019 (GMT -0600)
Madison-Lac Qui Parle County

Weather History for KDXX - October, 2019

Change the Weather History Date:

Thursday, October 17, 2019

  Actual Average (WUND) Record (WUND)
Temperature  
Mean Temperature 50 °F -  
Max Temperature 68 °F - - (-1)
Min Temperature 33 °F - - (-1)
Degree Days  
Heating Degree Days 14    
Moisture  
Dew Point 38 °F    
Average Humidity 71    
Maximum Humidity 100    
Minimum Humidity 35    
Precipitation  
Precipitation 0.00 in - - ()
Sea Level Pressure  
Sea Level Pressure 29.86 in    
Wind  
Wind Speed 7 mph (SE)    
Max Wind Speed 15 mph    
Max Gust Speed 22 mph    
Visibility 10 miles    
Events      
Averages and records for this station are not official NWS values.
T = Trace of Precipitation, MM = Missing Value Source: NWS Daily Summary

Daily Weather History Graph

Daily Weather History Graph

Search for Another Location

Airport or City:

Astronomy

Oct. 17, 2019 Rise Set
Actual Time 7:42 AM CDT 6:36 PM CDT
Civil Twilight 7:13 AM CDT 7:06 PM CDT
Nautical Twilight 6:39 AM CDT 7:40 PM CDT
Astronomical Twilight 6:05 AM CDT 8:14 PM CDT
Moon 9:00 PM CDT (10/17) 11:23 AM CDT (10/17)
Length of Visible Light 11h 53m
Length of Day
10h 53m
Waning Gibbous, 86% of the Moon is Illuminated
Oct 17
Waning Gibbous
Oct 21
Last Quarter
Oct 27
New
Nov 4
First Quarter
Nov 12
Full

Hourly Weather History & Observations

Time (CDT) Temp. Windchill Dew Point Humidity Pressure Visibility Wind Dir Wind Speed Gust Speed Precip Events Conditions
12:15 AM 35.6 °F 31.7 °F 33.8 °F 93% 30.01 in 10.0 mi ESE 4.6 mph - N/A   Clear
12:16 AM 35.6 °F 31.7 °F 33.8 °F 93% 30.01 in 10.0 mi ESE 4.6 mph - N/A   Clear
12:35 AM 33.8 °F 29.6 °F 33.8 °F 100% 30.00 in 10.0 mi East 4.6 mph - N/A   Clear
12:57 AM 33.8 °F 29.6 °F 33.8 °F 100% 30.00 in 10.0 mi ESE 4.6 mph - N/A   Clear
1:15 AM 33.8 °F 29.6 °F 33.8 °F 100% 29.99 in 10.0 mi ESE 4.6 mph - N/A   Clear
1:35 AM 33.8 °F 29.6 °F 33.8 °F 100% 29.99 in 10.0 mi SE 4.6 mph - N/A   Clear
1:36 AM 33.8 °F 29.6 °F 33.8 °F 100% 29.99 in 10.0 mi SE 4.6 mph - N/A   Clear
1:55 AM 33.8 °F 29.6 °F 33.8 °F 100% 29.99 in 10.0 mi SE 4.6 mph - N/A   Clear
1:56 AM 35.6 °F 31.7 °F 33.8 °F 93% 29.99 in 10.0 mi SE 4.6 mph - N/A   Clear
2:19 AM 35.6 °F 30.7 °F 33.8 °F 93% 29.98 in 10.0 mi SE 5.8 mph - N/A   Clear
2:36 AM 35.6 °F 30.7 °F 33.8 °F 93% 29.98 in 10.0 mi SE 5.8 mph - N/A   Clear
2:56 AM 35.6 °F 31.7 °F 33.8 °F 93% 29.97 in 10.0 mi SE 4.6 mph - N/A   Clear
3:15 AM 35.6 °F 30.7 °F 33.8 °F 93% 29.97 in 10.0 mi SE 5.8 mph - N/A   Clear
3:16 AM 35.6 °F 30.7 °F 33.8 °F 93% 29.97 in 10.0 mi SE 5.8 mph - N/A   Clear
3:35 AM 33.8 °F 28.6 °F 33.8 °F 100% 29.96 in 10.0 mi SE 5.8 mph - N/A   Clear
3:39 AM 33.8 °F 29.6 °F 33.8 °F 100% 29.96 in 10.0 mi SE 4.6 mph - N/A   Clear
3:58 AM 33.8 °F 29.6 °F 33.8 °F 100% 29.95 in 10.0 mi SSE 4.6 mph - N/A   Clear
4:15 AM 35.6 °F 31.7 °F 33.8 °F 93% 29.95 in 10.0 mi SSE 4.6 mph - N/A   Clear
4:36 AM 35.6 °F 29.9 °F 33.8 °F 93% 29.94 in 10.0 mi SE 6.9 mph - N/A   Clear
4:55 AM 33.8 °F 29.6 °F 33.8 °F 100% 29.94 in 10.0 mi ESE 4.6 mph - N/A   Clear
4:56 AM 33.8 °F 29.6 °F 33.8 °F 100% 29.94 in 10.0 mi ESE 4.6 mph - N/A   Clear
5:18 AM 33.8 °F 29.6 °F 32.0 °F 93% 29.94 in 10.0 mi East 4.6 mph - N/A   Clear
5:36 AM 33.8 °F 30.8 °F 32.0 °F 93% 29.93 in 10.0 mi East 3.5 mph - N/A   Clear
5:55 AM 33.8 °F 29.6 °F 32.0 °F 93% 29.94 in 10.0 mi ESE 4.6 mph - N/A   Clear
5:56 AM 33.8 °F 29.6 °F 32.0 °F 93% 29.94 in 10.0 mi ESE 4.6 mph - N/A   Clear
6:15 AM 33.8 °F 28.6 °F 32.0 °F 93% 29.93 in 10.0 mi ESE 5.8 mph - N/A   Clear
6:16 AM 33.8 °F 28.6 °F 32.0 °F 93% 29.93 in 10.0 mi ESE 5.8 mph - N/A   Clear
6:35 AM 33.8 °F - 32.0 °F 93% 29.93 in 10.0 mi Calm Calm - N/A   Clear
6:57 AM 33.8 °F 30.8 °F 33.8 °F 100% 29.93 in 10.0 mi SE 3.5 mph - N/A   Clear
7:15 AM 33.8 °F 29.6 °F 33.8 °F 100% 29.93 in 10.0 mi SE 4.6 mph - N/A   Clear
7:35 AM 33.8 °F 29.6 °F 32.0 °F 93% 29.93 in 10.0 mi ESE 4.6 mph - N/A   Clear
7:55 AM 33.8 °F - 33.8 °F 100% 29.93 in 10.0 mi Calm Calm - N/A   Clear
7:56 AM 33.8 °F 30.8 °F 33.8 °F 100% 29.93 in 10.0 mi SE 3.5 mph - N/A   Clear
8:19 AM 35.6 °F 31.7 °F 33.8 °F 93% 29.93 in 10.0 mi SE 4.6 mph - N/A   Clear
8:37 AM 35.6 °F 31.7 °F 35.6 °F 100% 29.93 in 10.0 mi SE 4.6 mph - N/A   Clear
8:56 AM 37.4 °F 32.8 °F 35.6 °F 93% 29.93 in 10.0 mi SE 5.8 mph - N/A   Clear
9:15 AM 39.2 °F 34.2 °F 37.4 °F 93% 29.93 in 10.0 mi SE 6.9 mph - N/A   Clear
9:35 AM 42.8 °F 37.5 °F 37.4 °F 81% 29.93 in 10.0 mi SE 9.2 mph - N/A   Clear
9:39 AM 42.8 °F 38.0 °F 37.4 °F 81% 29.93 in 10.0 mi SE 8.1 mph - N/A   Clear
9:58 AM 44.6 °F 38.8 °F 37.4 °F 76% 29.93 in 10.0 mi SE 11.5 mph - N/A   Clear
10:15 AM 44.6 °F 39.2 °F 37.4 °F 76% 29.92 in 10.0 mi SE 10.4 mph - N/A   Clear
10:35 AM 46.4 °F 41.9 °F 39.2 °F 76% 29.91 in 10.0 mi SE 9.2 mph - N/A   Clear
10:36 AM 46.4 °F 41.9 °F 39.2 °F 76% 29.91 in 10.0 mi SE 9.2 mph - N/A   Clear
10:55 AM 48.2 °F - 39.2 °F 71% 29.91 in 10.0 mi SE 8.1 mph - N/A   Clear
10:56 AM 48.2 °F - 39.2 °F 71% 29.91 in 10.0 mi SE 9.2 mph - N/A   Clear
11:18 AM 50.0 °F - 39.2 °F 66% 29.91 in 10.0 mi SE 9.2 mph - N/A   Clear
11:36 AM 51.8 °F - 39.2 °F 62% 29.91 in 10.0 mi SE 10.4 mph - N/A   Clear
11:55 AM 53.6 °F - 39.2 °F 58% 29.89 in 10.0 mi SE 10.4 mph 17.3 mph N/A   Clear
12:15 PM 55.4 °F - 39.2 °F 54% 29.89 in 10.0 mi SE 11.5 mph - N/A   Clear
12:16 PM 55.4 °F - 39.2 °F 54% 29.89 in 10.0 mi SE 10.4 mph - N/A   Clear
12:35 PM 57.2 °F - 41.0 °F 55% 29.87 in 10.0 mi SE 10.4 mph 16.1 mph N/A   Clear
12:57 PM 59.0 °F - 41.0 °F 51% 29.86 in 10.0 mi SE 11.5 mph 16.1 mph N/A   Clear
1:15 PM 60.8 °F - 41.0 °F 48% 29.85 in 10.0 mi SE 11.5 mph 18.4 mph N/A   Clear
1:35 PM 62.6 °F - 41.0 °F 45% 29.84 in 10.0 mi SE 11.5 mph - N/A   Clear
1:36 PM 62.6 °F - 41.0 °F 45% 29.84 in 10.0 mi SE 12.7 mph - N/A   Clear
1:55 PM 62.6 °F - 41.0 °F 45% 29.83 in 10.0 mi SE 12.7 mph 17.3 mph N/A   Clear
1:56 PM 62.6 °F - 41.0 °F 45% 29.83 in 10.0 mi SE 12.7 mph 17.3 mph N/A   Clear
2:18 PM 64.4 °F - 39.2 °F 40% 29.82 in 10.0 mi SE 15.0 mph - N/A   Clear
2:37 PM 66.2 °F - 39.2 °F 37% 29.82 in 10.0 mi SE 11.5 mph - N/A   Clear
2:56 PM 66.2 °F - 39.2 °F 37% 29.80 in 10.0 mi SSE 13.8 mph 19.6 mph N/A   Clear
3:15 PM 66.2 °F - 39.2 °F 37% 29.80 in 10.0 mi SSE 15.0 mph 21.9 mph N/A   Clear
3:35 PM 68.0 °F - 39.2 °F 35% 29.79 in 10.0 mi SSE 12.7 mph 18.4 mph N/A   Clear
3:39 PM 68.0 °F - 39.2 °F 35% 29.79 in 10.0 mi SE 12.7 mph 20.7 mph N/A   Clear
3:57 PM 68.0 °F - 39.2 °F 35% 29.78 in 10.0 mi SE 11.5 mph 18.4 mph N/A   Clear
4:16 PM 68.0 °F - 39.2 °F 35% 29.77 in 10.0 mi SSE 15.0 mph 20.7 mph N/A   Clear
4:35 PM 68.0 °F - 39.2 °F 35% 29.77 in 10.0 mi SSE 12.7 mph - N/A   Clear
4:36 PM 68.0 °F - 39.2 °F 35% 29.77 in 10.0 mi SSE 13.8 mph 20.7 mph N/A   Clear
4:55 PM 68.0 °F - 39.2 °F 35% 29.77 in 10.0 mi SE 12.7 mph - N/A   Clear
4:56 PM 68.0 °F - 39.2 °F 35% 29.77 in 10.0 mi SSE 12.7 mph - N/A   Clear
5:18 PM 66.2 °F - 39.2 °F 37% 29.76 in 10.0 mi SSE 13.8 mph 18.4 mph N/A   Clear
5:36 PM 66.2 °F - 39.2 °F 37% 29.76 in 10.0 mi SSE 15.0 mph 19.6 mph N/A   Clear
5:56 PM 64.4 °F - 41.0 °F 42% 29.76 in 10.0 mi SE 12.7 mph - N/A   Clear
6:15 PM 62.6 °F - 42.8 °F 48% 29.75 in 10.0 mi SE 11.5 mph - N/A   Clear
6:16 PM 62.6 °F - 42.8 °F 48% 29.75 in 10.0 mi SE 11.5 mph - N/A   Clear
6:35 PM 60.8 °F - 41.0 °F 48% 29.74 in 10.0 mi SE 11.5 mph - N/A   Clear
6:39 PM 60.8 °F - 41.0 °F 48% 29.75 in 10.0 mi SE 11.5 mph - N/A   Clear
6:58 PM 59.0 °F - 42.8 °F 55% 29.75 in 10.0 mi ESE 11.5 mph - N/A   Clear
7:15 PM 59.0 °F - 42.8 °F 55% 29.74 in 10.0 mi SE 12.7 mph - N/A   Clear
7:35 PM 57.2 °F - 42.8 °F 59% 29.74 in 10.0 mi SE 11.5 mph - N/A   Clear
7:36 PM 57.2 °F - 42.8 °F 59% 29.74 in 10.0 mi SE 12.7 mph - N/A   Clear
7:55 PM 57.2 °F - 42.8 °F 59% 29.74 in 10.0 mi ESE 10.4 mph - N/A   Clear
7:56 PM 55.4 °F - 42.8 °F 63% 29.74 in 10.0 mi ESE 10.4 mph - N/A   Clear
8:18 PM 55.4 °F - 42.8 °F 63% 29.74 in 10.0 mi SE 11.5 mph 17.3 mph N/A   Clear
8:37 PM 55.4 °F - 42.8 °F 63% 29.73 in 10.0 mi SE 13.8 mph - N/A   Clear
8:56 PM 55.4 °F - 42.8 °F 63% 29.72 in 10.0 mi SE 13.8 mph - N/A   Clear
9:15 PM 55.4 °F - 42.8 °F 63% 29.73 in 10.0 mi SE 13.8 mph - N/A   Clear
9:16 PM 55.4 °F - 42.8 °F 63% 29.73 in 10.0 mi SE 13.8 mph 19.6 mph N/A   Clear
9:35 PM 55.4 °F - 42.8 °F 63% 29.73 in 10.0 mi SE 12.7 mph 17.3 mph N/A   Clear
9:57 PM 55.4 °F - 42.8 °F 63% 29.73 in 10.0 mi SE 10.4 mph - N/A   Clear
10:16 PM 55.4 °F - 42.8 °F 63% 29.72 in 10.0 mi SE 11.5 mph 18.4 mph N/A   Clear
10:35 PM 55.4 °F - 42.8 °F 63% 29.72 in 10.0 mi SE 13.8 mph 20.7 mph N/A   Clear
10:36 PM 55.4 °F - 42.8 °F 63% 29.72 in 10.0 mi SE 13.8 mph 20.7 mph N/A   Clear
10:55 PM 55.4 °F - 42.8 °F 63% 29.71 in 10.0 mi SE 13.8 mph 17.3 mph N/A   Clear
11:17 PM 53.6 °F - 42.8 °F 67% 29.71 in 10.0 mi SE 15.0 mph - N/A   Clear
11:36 PM 53.6 °F - 42.8 °F 67% 29.71 in 10.0 mi SE 11.5 mph 17.3 mph N/A   Clear
11:55 PM 53.6 °F - 42.8 °F 67% 29.70 in 10.0 mi SE 12.7 mph 20.7 mph N/A   Clear
11:56 PM 53.6 °F - 42.8 °F 67% 29.70 in 10.0 mi SE 13.8 mph 20.7 mph N/A   Clear